sensor_id;sensor_type;location;lat;lon;timestamp;P1;durP1;ratioP1;P2;durP2;ratioP2
72813;SDS011;60945;48.516;-2.768;2022-07-06T00:00:33;11.40;;;3.67;;
72813;SDS011;60945;48.516;-2.768;2022-07-06T00:02:59;8.73;;;4.55;;
72813;SDS011;60945;48.516;-2.768;2022-07-06T00:05:25;8.00;;;4.88;;
72813;SDS011;60945;48.516;-2.768;2022-07-06T00:07:50;6.20;;;3.40;;
72813;SDS011;60945;48.516;-2.768;2022-07-06T00:10:16;11.25;;;3.47;;
72813;SDS011;60945;48.516;-2.768;2022-07-06T00:12:42;9.88;;;3.58;;
72813;SDS011;60945;48.516;-2.768;2022-07-06T00:15:08;11.43;;;4.05;;
72813;SDS011;60945;48.516;-2.768;2022-07-06T00:17:33;6.45;;;3.08;;
72813;SDS011;60945;48.516;-2.768;2022-07-06T00:19:59;6.65;;;3.55;;
72813;SDS011;60945;48.516;-2.768;2022-07-06T00:22:25;7.78;;;3.00;;
72813;SDS011;60945;48.516;-2.768;2022-07-06T00:24:51;8.80;;;3.63;;
72813;SDS011;60945;48.516;-2.768;2022-07-06T00:27:16;8.63;;;3.65;;
72813;SDS011;60945;48.516;-2.768;2022-07-06T00:29:42;9.88;;;3.97;;
72813;SDS011;60945;48.516;-2.768;2022-07-06T00:32:09;11.10;;;3.85;;
72813;SDS011;60945;48.516;-2.768;2022-07-06T00:34:36;6.00;;;3.03;;
72813;SDS011;60945;48.516;-2.768;2022-07-06T00:37:04;10.25;;;3.22;;
72813;SDS011;60945;48.516;-2.768;2022-07-06T00:39:30;5.82;;;2.97;;
72813;SDS011;60945;48.516;-2.768;2022-07-06T00:41:56;7.40;;;3.35;;
72813;SDS011;60945;48.516;-2.768;2022-07-06T00:44:22;10.20;;;4.15;;
72813;SDS011;60945;48.516;-2.768;2022-07-06T00:46:47;10.07;;;3.60;;
72813;SDS011;60945;48.516;-2.768;2022-07-06T00:49:13;8.43;;;3.60;;
72813;SDS011;60945;48.516;-2.768;2022-07-06T00:51:57;8.90;;;3.10;;
72813;SDS011;60945;48.516;-2.768;2022-07-06T00:54:24;3.85;;;3.25;;
72813;SDS011;60945;48.516;-2.768;2022-07-06T00:56:50;6.47;;;3.53;;
72813;SDS011;60945;48.516;-2.768;2022-07-06T00:59:16;7.55;;;3.72;;
72813;SDS011;60945;48.516;-2.768;2022-07-06T01:01:42;6.47;;;3.53;;
72813;SDS011;60945;48.516;-2.768;2022-07-06T01:04:07;8.10;;;2.72;;
72813;SDS011;60945;48.516;-2.768;2022-07-06T01:06:33;6.65;;;3.55;;
72813;SDS011;60945;48.516;-2.768;2022-07-06T01:08:58;9.93;;;3.72;;
72813;SDS011;60945;48.516;-2.768;2022-07-06T01:11:25;7.82;;;3.58;;
72813;SDS011;60945;48.516;-2.768;2022-07-06T01:13:50;9.65;;;3.83;;
72813;SDS011;60945;48.516;-2.768;2022-07-06T01:16:17;6.30;;;3.42;;
72813;SDS011;60945;48.516;-2.768;2022-07-06T01:18:43;8.50;;;3.25;;
72813;SDS011;60945;48.516;-2.768;2022-07-06T01:21:12;8.90;;;2.95;;
72813;SDS011;60945;48.516;-2.768;2022-07-06T01:23:43;5.07;;;3.80;;
72813;SDS011;60945;48.516;-2.768;2022-07-06T01:26:10;9.63;;;3.70;;
72813;SDS011;60945;48.516;-2.768;2022-07-06T01:28:40;5.40;;;3.20;;
72813;SDS011;60945;48.516;-2.768;2022-07-06T01:31:13;7.13;;;4.07;;
72813;SDS011;60945;48.516;-2.768;2022-07-06T01:33:43;9.00;;;4.63;;
72813;SDS011;60945;48.516;-2.768;2022-07-06T01:36:09;8.55;;;3.13;;
72813;SDS011;60945;48.516;-2.768;2022-07-06T01:38:46;9.93;;;4.03;;
72813;SDS011;60945;48.516;-2.768;2022-07-06T01:41:11;8.00;;;3.60;;
72813;SDS011;60945;48.516;-2.768;2022-07-06T01:43:38;9.40;;;4.20;;
72813;SDS011;60945;48.516;-2.768;2022-07-06T01:46:03;9.07;;;4.40;;
72813;SDS011;60945;48.516;-2.768;2022-07-06T01:48:29;10.57;;;5.32;;
72813;SDS011;60945;48.516;-2.768;2022-07-06T01:50:55;6.15;;;4.10;;
72813;SDS011;60945;48.516;-2.768;2022-07-06T01:53:20;9.27;;;4.53;;
72813;SDS011;60945;48.516;-2.768;2022-07-06T01:55:46;8.35;;;4.13;;
72813;SDS011;60945;48.516;-2.768;2022-07-06T01:58:11;12.32;;;5.53;;
72813;SDS011;60945;48.516;-2.768;2022-07-06T02:00:37;10.32;;;4.43;;
72813;SDS011;60945;48.516;-2.768;2022-07-06T02:03:03;10.57;;;4.22;;
72813;SDS011;60945;48.516;-2.768;2022-07-06T02:05:28;8.90;;;4.32;;
72813;SDS011;60945;48.516;-2.768;2022-07-06T02:07:54;7.25;;;3.92;;
72813;SDS011;60945;48.516;-2.768;2022-07-06T02:10:19;10.63;;;4.38;;
72813;SDS011;60945;48.516;-2.768;2022-07-06T02:12:45;10.48;;;4.55;;
72813;SDS011;60945;48.516;-2.768;2022-07-06T02:15:12;10.95;;;5.03;;
72813;SDS011;60945;48.516;-2.768;2022-07-06T02:17:37;8.18;;;4.60;;
72813;SDS011;60945;48.516;-2.768;2022-07-06T02:20:04;9.95;;;4.75;;
72813;SDS011;60945;48.516;-2.768;2022-07-06T02:22:30;8.15;;;5.88;;
72813;SDS011;60945;48.516;-2.768;2022-07-06T02:24:56;10.77;;;5.15;;
72813;SDS011;60945;48.516;-2.768;2022-07-06T02:27:21;8.68;;;5.43;;
72813;SDS011;60945;48.516;-2.768;2022-07-06T02:29:47;8.68;;;5.95;;
72813;SDS011;60945;48.516;-2.768;2022-07-06T02:32:13;14.57;;;5.72;;
72813;SDS011;60945;48.516;-2.768;2022-07-06T02:34:38;10.13;;;6.10;;
72813;SDS011;60945;48.516;-2.768;2022-07-06T02:37:04;11.23;;;5.75;;
72813;SDS011;60945;48.516;-2.768;2022-07-06T02:39:29;8.93;;;5.22;;
72813;SDS011;60945;48.516;-2.768;2022-07-06T02:41:55;9.82;;;5.30;;
72813;SDS011;60945;48.516;-2.768;2022-07-06T02:44:21;12.23;;;5.88;;
72813;SDS011;60945;48.516;-2.768;2022-07-06T02:46:46;8.98;;;4.95;;
72813;SDS011;60945;48.516;-2.768;2022-07-06T02:49:12;11.57;;;6.13;;
72813;SDS011;60945;48.516;-2.768;2022-07-06T02:51:37;8.85;;;5.93;;
72813;SDS011;60945;48.516;-2.768;2022-07-06T02:54:03;9.20;;;5.70;;
72813;SDS011;60945;48.516;-2.768;2022-07-06T02:56:29;8.88;;;6.10;;
72813;SDS011;60945;48.516;-2.768;2022-07-06T02:58:54;10.77;;;5.50;;
72813;SDS011;60945;48.516;-2.768;2022-07-06T03:01:20;7.00;;;5.50;;
72813;SDS011;60945;48.516;-2.768;2022-07-06T03:03:46;9.20;;;5.97;;
72813;SDS011;60945;48.516;-2.768;2022-07-06T03:06:11;8.88;;;5.93;;
72813;SDS011;60945;48.516;-2.768;2022-07-06T03:08:37;11.07;;;6.75;;
72813;SDS011;60945;48.516;-2.768;2022-07-06T03:11:03;7.10;;;5.85;;
72813;SDS011;60945;48.516;-2.768;2022-07-06T03:13:28;13.35;;;7.47;;
72813;SDS011;60945;48.516;-2.768;2022-07-06T03:15:54;9.25;;;6.53;;
72813;SDS011;60945;48.516;-2.768;2022-07-06T03:18:20;10.90;;;6.50;;
72813;SDS011;60945;48.516;-2.768;2022-07-06T03:20:46;11.70;;;6.15;;
72813;SDS011;60945;48.516;-2.768;2022-07-06T03:23:11;10.95;;;7.20;;
72813;SDS011;60945;48.516;-2.768;2022-07-06T03:25:37;10.15;;;6.30;;
72813;SDS011;60945;48.516;-2.768;2022-07-06T03:28:03;11.73;;;7.68;;
72813;SDS011;60945;48.516;-2.768;2022-07-06T03:30:29;10.77;;;7.00;;
72813;SDS011;60945;48.516;-2.768;2022-07-06T03:32:54;10.18;;;6.43;;
72813;SDS011;60945;48.516;-2.768;2022-07-06T03:35:20;10.05;;;6.60;;
72813;SDS011;60945;48.516;-2.768;2022-07-06T03:37:46;10.50;;;5.75;;
72813;SDS011;60945;48.516;-2.768;2022-07-06T03:40:11;15.15;;;6.75;;
72813;SDS011;60945;48.516;-2.768;2022-07-06T03:42:38;7.93;;;6.30;;
72813;SDS011;60945;48.516;-2.768;2022-07-06T03:45:04;10.85;;;6.60;;
72813;SDS011;60945;48.516;-2.768;2022-07-06T03:47:30;9.70;;;6.35;;
72813;SDS011;60945;48.516;-2.768;2022-07-06T03:49:56;12.13;;;7.13;;
72813;SDS011;60945;48.516;-2.768;2022-07-06T03:52:22;8.95;;;6.65;;
72813;SDS011;60945;48.516;-2.768;2022-07-06T03:54:47;13.68;;;7.68;;
72813;SDS011;60945;48.516;-2.768;2022-07-06T03:57:13;12.10;;;7.03;;
72813;SDS011;60945;48.516;-2.768;2022-07-06T03:59:39;13.50;;;7.80;;
72813;SDS011;60945;48.516;-2.768;2022-07-06T04:02:05;11.40;;;7.93;;
72813;SDS011;60945;48.516;-2.768;2022-07-06T04:04:31;11.00;;;7.15;;
72813;SDS011;60945;48.516;-2.768;2022-07-06T04:06:58;12.40;;;7.25;;
72813;SDS011;60945;48.516;-2.768;2022-07-06T04:09:23;11.93;;;6.97;;
72813;SDS011;60945;48.516;-2.768;2022-07-06T04:11:49;11.48;;;7.18;;
72813;SDS011;60945;48.516;-2.768;2022-07-06T04:14:15;14.15;;;7.20;;
72813;SDS011;60945;48.516;-2.768;2022-07-06T04:16:40;11.27;;;6.50;;
72813;SDS011;60945;48.516;-2.768;2022-07-06T04:19:06;10.82;;;7.60;;
72813;SDS011;60945;48.516;-2.768;2022-07-06T04:21:31;7.85;;;7.03;;
72813;SDS011;60945;48.516;-2.768;2022-07-06T04:23:57;8.68;;;6.70;;
72813;SDS011;60945;48.516;-2.768;2022-07-06T04:26:23;8.90;;;7.00;;
72813;SDS011;60945;48.516;-2.768;2022-07-06T04:28:48;11.52;;;7.80;;
72813;SDS011;60945;48.516;-2.768;2022-07-06T04:31:14;10.75;;;8.23;;
72813;SDS011;60945;48.516;-2.768;2022-07-06T04:33:40;10.80;;;6.50;;
72813;SDS011;60945;48.516;-2.768;2022-07-06T04:36:08;11.30;;;7.70;;
72813;SDS011;60945;48.516;-2.768;2022-07-06T04:38:34;9.10;;;6.47;;
72813;SDS011;60945;48.516;-2.768;2022-07-06T04:40:59;14.50;;;8.02;;
72813;SDS011;60945;48.516;-2.768;2022-07-06T04:43:25;10.13;;;7.95;;
72813;SDS011;60945;48.516;-2.768;2022-07-06T04:45:51;12.32;;;8.40;;
72813;SDS011;60945;48.516;-2.768;2022-07-06T04:48:16;10.98;;;8.07;;
72813;SDS011;60945;48.516;-2.768;2022-07-06T04:50:42;9.77;;;7.22;;
72813;SDS011;60945;48.516;-2.768;2022-07-06T04:53:07;13.77;;;7.30;;
72813;SDS011;60945;48.516;-2.768;2022-07-06T04:55:33;11.15;;;8.65;;
72813;SDS011;60945;48.516;-2.768;2022-07-06T04:57:59;14.18;;;6.88;;
72813;SDS011;60945;48.516;-2.768;2022-07-06T05:00:24;11.13;;;7.35;;
72813;SDS011;60945;48.516;-2.768;2022-07-06T05:02:50;9.23;;;7.10;;
72813;SDS011;60945;48.516;-2.768;2022-07-06T05:05:16;13.40;;;7.88;;
72813;SDS011;60945;48.516;-2.768;2022-07-06T05:07:41;11.50;;;8.75;;
72813;SDS011;60945;48.516;-2.768;2022-07-06T05:10:10;9.55;;;7.05;;
72813;SDS011;60945;48.516;-2.768;2022-07-06T05:12:37;11.07;;;8.15;;
72813;SDS011;60945;48.516;-2.768;2022-07-06T05:15:03;10.35;;;7.07;;
72813;SDS011;60945;48.516;-2.768;2022-07-06T05:17:30;11.98;;;7.20;;
72813;SDS011;60945;48.516;-2.768;2022-07-06T05:19:55;10.73;;;6.82;;
72813;SDS011;60945;48.516;-2.768;2022-07-06T05:22:21;11.45;;;6.63;;
72813;SDS011;60945;48.516;-2.768;2022-07-06T05:24:47;9.50;;;6.60;;
72813;SDS011;60945;48.516;-2.768;2022-07-06T05:27:12;8.93;;;6.63;;
72813;SDS011;60945;48.516;-2.768;2022-07-06T05:29:38;9.05;;;6.80;;
72813;SDS011;60945;48.516;-2.768;2022-07-06T05:32:04;8.45;;;7.35;;
72813;SDS011;60945;48.516;-2.768;2022-07-06T05:34:29;12.43;;;5.82;;
72813;SDS011;60945;48.516;-2.768;2022-07-06T05:36:55;11.02;;;6.20;;
72813;SDS011;60945;48.516;-2.768;2022-07-06T05:39:21;9.93;;;6.70;;
72813;SDS011;60945;48.516;-2.768;2022-07-06T05:41:47;8.90;;;5.80;;
72813;SDS011;60945;48.516;-2.768;2022-07-06T05:44:14;11.35;;;6.70;;
72813;SDS011;60945;48.516;-2.768;2022-07-06T05:46:40;8.70;;;6.90;;
72813;SDS011;60945;48.516;-2.768;2022-07-06T05:49:06;9.00;;;6.28;;
72813;SDS011;60945;48.516;-2.768;2022-07-06T05:51:50;7.57;;;5.88;;
72813;SDS011;60945;48.516;-2.768;2022-07-06T05:54:16;10.02;;;6.13;;
72813;SDS011;60945;48.516;-2.768;2022-07-06T05:56:41;6.15;;;5.55;;
72813;SDS011;60945;48.516;-2.768;2022-07-06T05:59:07;5.72;;;4.85;;
72813;SDS011;60945;48.516;-2.768;2022-07-06T06:01:32;9.40;;;5.60;;
72813;SDS011;60945;48.516;-2.768;2022-07-06T06:03:58;9.20;;;5.07;;
72813;SDS011;60945;48.516;-2.768;2022-07-06T06:06:24;7.90;;;5.53;;
72813;SDS011;60945;48.516;-2.768;2022-07-06T06:08:51;8.77;;;4.93;;
72813;SDS011;60945;48.516;-2.768;2022-07-06T06:11:17;6.43;;;4.72;;
72813;SDS011;60945;48.516;-2.768;2022-07-06T06:13:42;9.23;;;4.88;;
72813;SDS011;60945;48.516;-2.768;2022-07-06T06:16:08;8.93;;;4.30;;
72813;SDS011;60945;48.516;-2.768;2022-07-06T06:18:34;9.90;;;4.38;;
72813;SDS011;60945;48.516;-2.768;2022-07-06T06:21:00;4.70;;;4.28;;
72813;SDS011;60945;48.516;-2.768;2022-07-06T06:23:25;9.00;;;4.28;;
72813;SDS011;60945;48.516;-2.768;2022-07-06T06:25:51;7.13;;;4.60;;
72813;SDS011;60945;48.516;-2.768;2022-07-06T06:28:17;6.93;;;4.70;;
72813;SDS011;60945;48.516;-2.768;2022-07-06T06:30:42;10.75;;;4.00;;
72813;SDS011;60945;48.516;-2.768;2022-07-06T06:33:12;8.10;;;3.83;;
72813;SDS011;60945;48.516;-2.768;2022-07-06T06:35:46;10.30;;;4.00;;
72813;SDS011;60945;48.516;-2.768;2022-07-06T06:38:13;10.52;;;4.47;;
72813;SDS011;60945;48.516;-2.768;2022-07-06T06:40:39;5.70;;;3.65;;
72813;SDS011;60945;48.516;-2.768;2022-07-06T06:43:05;5.68;;;3.72;;
72813;SDS011;60945;48.516;-2.768;2022-07-06T06:45:31;8.32;;;4.00;;
72813;SDS011;60945;48.516;-2.768;2022-07-06T06:47:57;6.68;;;3.63;;
72813;SDS011;60945;48.516;-2.768;2022-07-06T06:50:23;10.32;;;3.42;;
72813;SDS011;60945;48.516;-2.768;2022-07-06T06:52:49;7.50;;;3.42;;
72813;SDS011;60945;48.516;-2.768;2022-07-06T06:55:15;6.30;;;3.80;;
72813;SDS011;60945;48.516;-2.768;2022-07-06T06:57:41;9.43;;;4.25;;
72813;SDS011;60945;48.516;-2.768;2022-07-06T07:00:07;4.63;;;3.58;;
72813;SDS011;60945;48.516;-2.768;2022-07-06T07:02:33;7.45;;;2.97;;
72813;SDS011;60945;48.516;-2.768;2022-07-06T07:04:59;4.95;;;2.97;;
72813;SDS011;60945;48.516;-2.768;2022-07-06T07:07:25;5.63;;;2.40;;
72813;SDS011;60945;48.516;-2.768;2022-07-06T07:09:50;3.00;;;2.03;;
72813;SDS011;60945;48.516;-2.768;2022-07-06T07:12:16;5.30;;;2.30;;
72813;SDS011;60945;48.516;-2.768;2022-07-06T07:14:42;3.45;;;2.08;;
72813;SDS011;60945;48.516;-2.768;2022-07-06T07:17:08;3.58;;;1.98;;
72813;SDS011;60945;48.516;-2.768;2022-07-06T07:19:35;7.82;;;2.78;;
72813;SDS011;60945;48.516;-2.768;2022-07-06T07:22:01;6.95;;;3.70;;
72813;SDS011;60945;48.516;-2.768;2022-07-06T07:24:27;8.65;;;2.50;;
72813;SDS011;60945;48.516;-2.768;2022-07-06T07:26:52;4.38;;;2.13;;
72813;SDS011;60945;48.516;-2.768;2022-07-06T07:29:18;3.00;;;1.45;;
72813;SDS011;60945;48.516;-2.768;2022-07-06T07:31:43;6.70;;;2.47;;
72813;SDS011;60945;48.516;-2.768;2022-07-06T07:34:09;5.30;;;2.58;;
72813;SDS011;60945;48.516;-2.768;2022-07-06T07:36:35;4.03;;;2.00;;
72813;SDS011;60945;48.516;-2.768;2022-07-06T07:39:00;2.78;;;2.13;;
72813;SDS011;60945;48.516;-2.768;2022-07-06T07:41:26;3.90;;;2.00;;
72813;SDS011;60945;48.516;-2.768;2022-07-06T07:43:52;7.18;;;2.10;;
72813;SDS011;60945;48.516;-2.768;2022-07-06T07:46:17;5.88;;;2.50;;
72813;SDS011;60945;48.516;-2.768;2022-07-06T07:48:43;5.70;;;2.50;;
72813;SDS011;60945;48.516;-2.768;2022-07-06T07:51:09;4.50;;;1.88;;
72813;SDS011;60945;48.516;-2.768;2022-07-06T07:53:34;3.72;;;2.13;;
72813;SDS011;60945;48.516;-2.768;2022-07-06T07:56:00;2.97;;;2.25;;
72813;SDS011;60945;48.516;-2.768;2022-07-06T07:58:26;3.90;;;2.00;;
72813;SDS011;60945;48.516;-2.768;2022-07-06T08:00:52;2.55;;;1.80;;
72813;SDS011;60945;48.516;-2.768;2022-07-06T08:03:18;4.07;;;2.17;;
72813;SDS011;60945;48.516;-2.768;2022-07-06T08:05:43;3.78;;;2.33;;
72813;SDS011;60945;48.516;-2.768;2022-07-06T08:08:09;5.97;;;2.30;;
72813;SDS011;60945;48.516;-2.768;2022-07-06T08:10:34;4.20;;;2.35;;
72813;SDS011;60945;48.516;-2.768;2022-07-06T08:13:00;3.08;;;2.13;;
72813;SDS011;60945;48.516;-2.768;2022-07-06T08:15:26;6.70;;;1.90;;
72813;SDS011;60945;48.516;-2.768;2022-07-06T08:17:52;4.28;;;1.50;;
72813;SDS011;60945;48.516;-2.768;2022-07-06T08:20:18;5.70;;;2.20;;
72813;SDS011;60945;48.516;-2.768;2022-07-06T08:22:43;4.45;;;3.53;;
72813;SDS011;60945;48.516;-2.768;2022-07-06T08:25:09;4.10;;;1.70;;
72813;SDS011;60945;48.516;-2.768;2022-07-06T08:27:35;4.07;;;2.05;;
72813;SDS011;60945;48.516;-2.768;2022-07-06T08:30:02;3.30;;;2.00;;
72813;SDS011;60945;48.516;-2.768;2022-07-06T08:32:28;3.85;;;2.22;;
72813;SDS011;60945;48.516;-2.768;2022-07-06T08:34:54;3.65;;;1.98;;
72813;SDS011;60945;48.516;-2.768;2022-07-06T08:37:20;12.57;;;7.07;;
72813;SDS011;60945;48.516;-2.768;2022-07-06T08:39:45;32.75;;;24.00;;
72813;SDS011;60945;48.516;-2.768;2022-07-06T08:42:11;15.02;;;9.60;;
72813;SDS011;60945;48.516;-2.768;2022-07-06T08:44:40;8.05;;;5.63;;
72813;SDS011;60945;48.516;-2.768;2022-07-06T08:47:07;4.55;;;3.25;;
72813;SDS011;60945;48.516;-2.768;2022-07-06T08:49:34;4.53;;;2.60;;
72813;SDS011;60945;48.516;-2.768;2022-07-06T08:52:02;4.45;;;2.28;;
72813;SDS011;60945;48.516;-2.768;2022-07-06T08:54:29;3.40;;;2.13;;
72813;SDS011;60945;48.516;-2.768;2022-07-06T08:56:55;6.43;;;2.58;;
72813;SDS011;60945;48.516;-2.768;2022-07-06T08:59:21;3.70;;;1.98;;
72813;SDS011;60945;48.516;-2.768;2022-07-06T09:01:47;2.53;;;1.83;;
72813;SDS011;60945;48.516;-2.768;2022-07-06T09:04:15;1.85;;;1.65;;
72813;SDS011;60945;48.516;-2.768;2022-07-06T09:06:42;3.73;;;2.10;;
72813;SDS011;60945;48.516;-2.768;2022-07-06T09:09:10;5.00;;;1.95;;
72813;SDS011;60945;48.516;-2.768;2022-07-06T09:11:45;3.08;;;1.70;;
72813;SDS011;60945;48.516;-2.768;2022-07-06T09:14:11;3.35;;;1.75;;
72813;SDS011;60945;48.516;-2.768;2022-07-06T09:16:36;5.13;;;2.08;;
72813;SDS011;60945;48.516;-2.768;2022-07-06T09:19:02;3.28;;;1.75;;
72813;SDS011;60945;48.516;-2.768;2022-07-06T09:21:29;4.55;;;2.28;;
72813;SDS011;60945;48.516;-2.768;2022-07-06T09:24:02;3.03;;;1.80;;
72813;SDS011;60945;48.516;-2.768;2022-07-06T09:26:31;3.33;;;1.50;;
72813;SDS011;60945;48.516;-2.768;2022-07-06T09:28:57;3.05;;;1.80;;
72813;SDS011;60945;48.516;-2.768;2022-07-06T09:31:24;5.43;;;4.13;;
72813;SDS011;60945;48.516;-2.768;2022-07-06T09:33:54;4.15;;;2.08;;
72813;SDS011;60945;48.516;-2.768;2022-07-06T09:39:14;2.45;;;1.52;;
72813;SDS011;60945;48.516;-2.768;2022-07-06T09:41:40;4.88;;;2.35;;
72813;SDS011;60945;48.516;-2.768;2022-07-06T09:44:06;3.05;;;1.60;;
72813;SDS011;60945;48.516;-2.768;2022-07-06T09:46:39;5.20;;;1.77;;
72813;SDS011;60945;48.516;-2.768;2022-07-06T09:49:06;2.08;;;1.50;;
72813;SDS011;60945;48.516;-2.768;2022-07-06T09:51:35;3.03;;;2.72;;
72813;SDS011;60945;48.516;-2.768;2022-07-06T09:54:03;3.33;;;1.85;;
72813;SDS011;60945;48.516;-2.768;2022-07-06T09:56:39;2.88;;;1.73;;
72813;SDS011;60945;48.516;-2.768;2022-07-06T09:59:08;4.30;;;1.30;;
72813;SDS011;60945;48.516;-2.768;2022-07-06T10:01:34;2.15;;;1.38;;
72813;SDS011;60945;48.516;-2.768;2022-07-06T10:06:31;3.30;;;1.63;;
72813;SDS011;60945;48.516;-2.768;2022-07-06T10:08:57;2.55;;;1.50;;
72813;SDS011;60945;48.516;-2.768;2022-07-06T10:11:24;1.38;;;1.20;;
72813;SDS011;60945;48.516;-2.768;2022-07-06T10:13:50;2.92;;;1.60;;
72813;SDS011;60945;48.516;-2.768;2022-07-06T10:16:22;2.25;;;1.73;;
72813;SDS011;60945;48.516;-2.768;2022-07-06T10:18:49;2.08;;;1.27;;
72813;SDS011;60945;48.516;-2.768;2022-07-06T10:21:18;2.03;;;1.40;;
72813;SDS011;60945;48.516;-2.768;2022-07-06T10:23:46;1.55;;;1.30;;
72813;SDS011;60945;48.516;-2.768;2022-07-06T10:26:12;1.15;;;0.93;;
72813;SDS011;60945;48.516;-2.768;2022-07-06T10:28:39;2.15;;;1.52;;
72813;SDS011;60945;48.516;-2.768;2022-07-06T10:31:07;2.33;;;1.15;;
72813;SDS011;60945;48.516;-2.768;2022-07-06T10:33:33;2.35;;;1.40;;
72813;SDS011;60945;48.516;-2.768;2022-07-06T10:36:00;2.10;;;1.15;;
72813;SDS011;60945;48.516;-2.768;2022-07-06T10:38:31;2.25;;;1.10;;
72813;SDS011;60945;48.516;-2.768;2022-07-06T10:41:02;3.20;;;1.35;;
72813;SDS011;60945;48.516;-2.768;2022-07-06T10:46:11;3.05;;;1.00;;
72813;SDS011;60945;48.516;-2.768;2022-07-06T10:48:43;1.70;;;1.20;;
72813;SDS011;60945;48.516;-2.768;2022-07-06T10:51:11;2.30;;;1.10;;
72813;SDS011;60945;48.516;-2.768;2022-07-06T10:53:38;2.38;;;1.73;;
72813;SDS011;60945;48.516;-2.768;2022-07-06T10:56:06;1.65;;;1.10;;
72813;SDS011;60945;48.516;-2.768;2022-07-06T11:01:02;1.58;;;0.90;;
72813;SDS011;60945;48.516;-2.768;2022-07-06T11:06:00;2.00;;;1.00;;
72813;SDS011;60945;48.516;-2.768;2022-07-06T11:08:46;1.73;;;0.95;;
72813;SDS011;60945;48.516;-2.768;2022-07-06T11:13:47;1.00;;;0.90;;
72813;SDS011;60945;48.516;-2.768;2022-07-06T11:16:15;1.65;;;0.75;;
72813;SDS011;60945;48.516;-2.768;2022-07-06T11:18:46;1.92;;;1.10;;
72813;SDS011;60945;48.516;-2.768;2022-07-06T11:21:17;1.70;;;1.30;;
72813;SDS011;60945;48.516;-2.768;2022-07-06T11:23:44;1.67;;;0.98;;
72813;SDS011;60945;48.516;-2.768;2022-07-06T11:26:12;1.67;;;1.00;;
72813;SDS011;60945;48.516;-2.768;2022-07-06T11:28:39;1.80;;;1.00;;
72813;SDS011;60945;48.516;-2.768;2022-07-06T11:31:05;0.82;;;0.80;;
72813;SDS011;60945;48.516;-2.768;2022-07-06T11:33:30;1.48;;;0.82;;
72813;SDS011;60945;48.516;-2.768;2022-07-06T11:36:11;1.10;;;0.77;;
72813;SDS011;60945;48.516;-2.768;2022-07-06T11:41:10;0.80;;;0.75;;
72813;SDS011;60945;48.516;-2.768;2022-07-06T11:43:38;0.70;;;0.70;;
72813;SDS011;60945;48.516;-2.768;2022-07-06T11:46:17;0.80;;;0.80;;
72813;SDS011;60945;48.516;-2.768;2022-07-06T11:48:50;1.88;;;1.05;;
72813;SDS011;60945;48.516;-2.768;2022-07-06T11:51:21;0.90;;;0.90;;
72813;SDS011;60945;48.516;-2.768;2022-07-06T11:53:49;0.60;;;0.60;;
72813;SDS011;60945;48.516;-2.768;2022-07-06T11:56:16;1.90;;;0.73;;
72813;SDS011;60945;48.516;-2.768;2022-07-06T11:58:53;1.50;;;0.80;;
72813;SDS011;60945;48.516;-2.768;2022-07-06T12:01:20;0.88;;;0.88;;
72813;SDS011;60945;48.516;-2.768;2022-07-06T12:03:48;0.70;;;0.70;;
72813;SDS011;60945;48.516;-2.768;2022-07-06T12:06:15;0.90;;;0.77;;
72813;SDS011;60945;48.516;-2.768;2022-07-06T12:08:50;2.30;;;0.95;;
72813;SDS011;60945;48.516;-2.768;2022-07-06T12:11:21;3.28;;;1.35;;
72813;SDS011;60945;48.516;-2.768;2022-07-06T12:13:47;2.63;;;0.88;;
72813;SDS011;60945;48.516;-2.768;2022-07-06T12:16:13;1.90;;;1.00;;
72813;SDS011;60945;48.516;-2.768;2022-07-06T12:18:41;1.85;;;0.95;;
72813;SDS011;60945;48.516;-2.768;2022-07-06T12:21:08;1.05;;;0.82;;
72813;SDS011;60945;48.516;-2.768;2022-07-06T12:23:43;1.48;;;0.95;;
72813;SDS011;60945;48.516;-2.768;2022-07-06T12:26:10;3.80;;;1.05;;
72813;SDS011;60945;48.516;-2.768;2022-07-06T12:28:37;1.33;;;0.93;;
72813;SDS011;60945;48.516;-2.768;2022-07-06T12:31:03;0.90;;;0.90;;
72813;SDS011;60945;48.516;-2.768;2022-07-06T12:33:29;1.35;;;1.10;;
72813;SDS011;60945;48.516;-2.768;2022-07-06T12:38:27;1.67;;;0.98;;
72813;SDS011;60945;48.516;-2.768;2022-07-06T12:40:54;0.98;;;0.98;;
72813;SDS011;60945;48.516;-2.768;2022-07-06T12:43:34;2.75;;;1.17;;
72813;SDS011;60945;48.516;-2.768;2022-07-06T12:46:26;2.38;;;1.00;;
72813;SDS011;60945;48.516;-2.768;2022-07-06T12:48:57;1.02;;;1.00;;
72813;SDS011;60945;48.516;-2.768;2022-07-06T12:51:24;0.93;;;0.90;;
72813;SDS011;60945;48.516;-2.768;2022-07-06T12:53:51;2.55;;;1.00;;
72813;SDS011;60945;48.516;-2.768;2022-07-06T12:58:58;1.02;;;1.02;;
72813;SDS011;60945;48.516;-2.768;2022-07-06T13:01:25;1.33;;;1.00;;
72813;SDS011;60945;48.516;-2.768;2022-07-06T13:03:54;0.93;;;0.93;;
72813;SDS011;60945;48.516;-2.768;2022-07-06T13:06:30;2.45;;;1.23;;
72813;SDS011;60945;48.516;-2.768;2022-07-06T13:09:00;0.90;;;0.90;;
72813;SDS011;60945;48.516;-2.768;2022-07-06T13:11:25;1.30;;;1.20;;
72813;SDS011;60945;48.516;-2.768;2022-07-06T13:13:51;1.25;;;1.15;;
72813;SDS011;60945;48.516;-2.768;2022-07-06T13:16:17;0.93;;;0.93;;
72813;SDS011;60945;48.516;-2.768;2022-07-06T13:18:43;1.30;;;1.20;;
72813;SDS011;60945;48.516;-2.768;2022-07-06T13:21:08;1.20;;;1.20;;
72813;SDS011;60945;48.516;-2.768;2022-07-06T13:23:34;1.42;;;1.42;;
72813;SDS011;60945;48.516;-2.768;2022-07-06T13:26:00;1.45;;;1.45;;
72813;SDS011;60945;48.516;-2.768;2022-07-06T13:28:25;1.33;;;1.33;;
72813;SDS011;60945;48.516;-2.768;2022-07-06T13:30:51;1.70;;;1.60;;
72813;SDS011;60945;48.516;-2.768;2022-07-06T13:33:17;1.90;;;1.80;;
72813;SDS011;60945;48.516;-2.768;2022-07-06T13:35:42;1.60;;;1.60;;
72813;SDS011;60945;48.516;-2.768;2022-07-06T13:38:08;2.00;;;1.90;;
72813;SDS011;60945;48.516;-2.768;2022-07-06T13:40:34;2.15;;;1.95;;
72813;SDS011;60945;48.516;-2.768;2022-07-06T13:43:00;1.92;;;1.65;;
72813;SDS011;60945;48.516;-2.768;2022-07-06T13:45:26;1.70;;;1.60;;
72813;SDS011;60945;48.516;-2.768;2022-07-06T13:47:52;1.60;;;1.50;;
72813;SDS011;60945;48.516;-2.768;2022-07-06T13:50:17;1.50;;;1.40;;
72813;SDS011;60945;48.516;-2.768;2022-07-06T13:52:43;1.50;;;1.40;;
72813;SDS011;60945;48.516;-2.768;2022-07-06T13:55:09;1.40;;;1.20;;
72813;SDS011;60945;48.516;-2.768;2022-07-06T13:57:34;2.33;;;1.38;;
72813;SDS011;60945;48.516;-2.768;2022-07-06T14:00:00;2.53;;;1.13;;
72813;SDS011;60945;48.516;-2.768;2022-07-06T14:02:27;3.38;;;0.98;;
72813;SDS011;60945;48.516;-2.768;2022-07-06T14:04:52;1.70;;;1.10;;
72813;SDS011;60945;48.516;-2.768;2022-07-06T14:07:18;1.02;;;0.98;;
72813;SDS011;60945;48.516;-2.768;2022-07-06T14:09:43;3.28;;;1.10;;
72813;SDS011;60945;48.516;-2.768;2022-07-06T14:12:09;4.40;;;0.93;;
72813;SDS011;60945;48.516;-2.768;2022-07-06T14:14:35;0.93;;;0.80;;
72813;SDS011;60945;48.516;-2.768;2022-07-06T14:17:00;0.70;;;0.67;;
72813;SDS011;60945;48.516;-2.768;2022-07-06T14:19:26;3.57;;;0.80;;
72813;SDS011;60945;48.516;-2.768;2022-07-06T14:21:52;1.00;;;0.90;;
72813;SDS011;60945;48.516;-2.768;2022-07-06T14:24:17;1.23;;;0.70;;
72813;SDS011;60945;48.516;-2.768;2022-07-06T14:26:43;1.63;;;0.63;;
72813;SDS011;60945;48.516;-2.768;2022-07-06T14:29:08;1.57;;;0.70;;
72813;SDS011;60945;48.516;-2.768;2022-07-06T14:31:34;0.80;;;0.80;;
72813;SDS011;60945;48.516;-2.768;2022-07-06T14:34:00;0.70;;;0.70;;
72813;SDS011;60945;48.516;-2.768;2022-07-06T14:36:25;1.07;;;0.80;;
72813;SDS011;60945;48.516;-2.768;2022-07-06T14:38:51;0.70;;;0.70;;
72813;SDS011;60945;48.516;-2.768;2022-07-06T14:41:16;0.47;;;0.43;;
72813;SDS011;60945;48.516;-2.768;2022-07-06T14:43:42;0.67;;;0.60;;
72813;SDS011;60945;48.516;-2.768;2022-07-06T14:46:08;0.60;;;0.60;;
72813;SDS011;60945;48.516;-2.768;2022-07-06T14:48:34;0.60;;;0.60;;
72813;SDS011;60945;48.516;-2.768;2022-07-06T14:50:59;1.10;;;0.50;;